createdAt,value
2024-01-15T14:34:29.835Z,4.16
2024-01-15T14:35:29.666Z,4.51
2024-01-15T14:36:29.711Z,4.73
2024-01-15T14:37:29.697Z,4.77
2024-01-15T14:38:29.695Z,4.65
2024-01-15T14:39:29.791Z,4.75
2024-01-15T14:40:29.691Z,4.41
2024-01-15T14:41:29.716Z,4.43
2024-01-15T14:42:29.731Z,3.97
2024-01-15T14:43:29.729Z,4.36
2024-01-15T14:44:29.709Z,4.52
2024-01-15T14:45:29.765Z,4.01
2024-01-15T14:46:29.799Z,3.70
2024-01-15T14:47:29.769Z,3.92
2024-01-15T14:48:29.839Z,3.89
2024-01-15T14:49:29.792Z,4.02
2024-01-15T14:50:29.671Z,4.11
2024-01-15T14:51:29.742Z,4.08
2024-01-15T14:52:29.708Z,3.98
2024-01-15T14:53:29.795Z,4.26
2024-01-15T14:54:29.760Z,4.16
2024-01-15T14:55:29.796Z,3.98
2024-01-15T14:56:29.834Z,4.12
2024-01-15T14:57:29.885Z,3.64
2024-01-15T14:58:29.946Z,3.82
2024-01-15T14:59:30.026Z,3.74
2024-01-15T15:00:30.118Z,4.02
2024-01-15T15:01:30.170Z,4.26
2024-01-15T15:02:31.597Z,4.36
2024-01-15T15:03:30.175Z,4.46
2024-01-15T15:04:30.203Z,4.28
2024-01-15T15:05:30.172Z,4.22
2024-01-15T15:06:30.309Z,4.12
2024-01-15T15:07:30.435Z,4.36
2024-01-15T15:08:30.160Z,4.42
2024-01-15T15:09:30.147Z,4.35
2024-01-15T15:10:30.133Z,4.48
2024-01-15T15:11:30.090Z,4.06
2024-01-15T15:12:30.200Z,3.88
2024-01-15T15:13:38.161Z,3.71
2024-01-15T15:14:31.148Z,4.02
2024-01-15T15:15:30.161Z,3.57
2024-01-15T15:16:30.143Z,3.68
2024-01-15T15:17:30.174Z,3.47
2024-01-15T15:18:30.219Z,3.74
2024-01-15T15:19:30.333Z,3.60
2024-01-15T15:20:30.231Z,3.71
2024-01-15T15:21:30.239Z,3.82
2024-01-15T15:22:30.278Z,3.79
2024-01-15T15:23:30.291Z,3.72
2024-01-15T15:24:30.329Z,3.32
2024-01-15T15:25:30.381Z,3.21
2024-01-15T15:26:30.526Z,3.42
2024-01-15T15:27:30.468Z,3.61
2024-01-15T15:28:30.604Z,3.77
2024-01-15T15:29:30.608Z,3.60
2024-01-15T15:30:30.604Z,3.54
2024-01-15T15:31:30.541Z,3.01
2024-01-15T15:32:30.702Z,3.24
2024-01-15T15:33:30.804Z,3.31
2024-01-15T15:34:30.735Z,3.50
2024-01-15T15:35:30.673Z,3.62
2024-01-15T15:36:30.708Z,3.62
2024-01-15T15:37:30.720Z,3.70
2024-01-15T15:38:30.792Z,3.92
2024-01-15T15:39:30.840Z,3.92
2024-01-15T15:40:30.926Z,4.11
2024-01-15T15:41:30.924Z,4.02
2024-01-15T15:42:30.950Z,3.72
2024-01-15T15:43:31.179Z,4.02
2024-01-15T15:44:31.045Z,4.04
2024-01-15T15:45:31.185Z,3.95
2024-01-15T15:46:31.156Z,3.98
2024-01-15T15:47:31.529Z,4.11
2024-01-15T15:48:31.403Z,4.12
2024-01-15T15:49:31.400Z,4.15
2024-01-15T15:50:34.369Z,4.25
2024-01-15T15:51:31.391Z,4.19
2024-01-15T15:52:31.371Z,4.11
2024-01-15T15:53:31.387Z,4.12
2024-01-15T15:54:31.431Z,4.31
2024-01-15T15:55:31.346Z,4.42
2024-01-15T15:56:31.349Z,4.28
2024-01-15T15:57:31.384Z,4.23
2024-01-15T15:58:31.377Z,4.48
2024-01-15T15:59:31.379Z,4.18
2024-01-15T16:00:31.423Z,4.13
2024-01-15T16:01:31.419Z,4.09
2024-01-15T16:02:32.598Z,4.26
2024-01-15T16:03:31.416Z,4.28
2024-01-15T16:04:31.553Z,4.45
2024-01-15T16:05:38.125Z,4.55
2024-01-15T16:06:32.534Z,4.59
2024-01-15T16:07:31.454Z,4.62
2024-01-15T16:08:31.432Z,4.73
2024-01-15T16:09:31.436Z,4.89
2024-01-15T16:10:31.380Z,4.90
2024-01-15T16:11:31.367Z,4.93
2024-01-15T16:12:31.453Z,4.77
2024-01-15T16:13:31.392Z,4.83
2024-01-15T16:14:31.433Z,4.63
2024-01-15T16:15:31.418Z,4.80
2024-01-15T16:23:11.431Z,4.84
2024-01-15T16:23:16.144Z,4.90
2024-01-15T16:23:21.183Z,4.86
2024-01-15T16:23:25.683Z,4.99
2024-01-15T16:23:31.033Z,5.02
2024-01-15T16:23:36.998Z,4.90
2024-01-15T16:23:42.325Z,4.93
2024-01-15T16:24:06.007Z,4.57
2024-01-15T16:24:40.821Z,4.29
2024-01-15T16:25:32.618Z,3.94
2024-01-15T16:26:31.714Z,4.16
2024-01-15T16:27:31.501Z,4.33
2024-01-15T16:28:31.578Z,4.45
2024-01-15T16:29:31.445Z,4.51
2024-01-15T16:30:37.456Z,4.39
2024-01-15T16:31:32.520Z,4.15
2024-01-15T16:32:31.556Z,3.89
2024-01-15T16:33:31.523Z,4.19
2024-01-15T16:34:31.477Z,4.35
2024-01-15T16:35:31.599Z,4.39
2024-01-15T16:36:31.572Z,4.48
2024-01-15T16:37:31.465Z,4.60
2024-01-15T16:38:31.528Z,4.59
2024-01-15T16:39:31.488Z,4.62
2024-01-15T16:40:31.773Z,4.56
2024-01-15T16:41:31.489Z,4.59
2024-01-15T16:42:31.451Z,4.70
2024-01-15T16:43:31.511Z,4.75
2024-01-15T16:44:31.565Z,4.59
2024-01-15T16:45:31.509Z,4.63
2024-01-15T16:46:31.582Z,4.69
2024-01-15T16:47:31.689Z,4.72
2024-01-15T16:48:31.808Z,4.80
2024-01-15T16:49:31.742Z,4.87
2024-01-15T16:50:31.852Z,4.86
2024-01-15T16:51:31.847Z,4.86
2024-01-15T16:52:31.925Z,4.56
2024-01-15T16:53:32.005Z,4.16
2024-01-15T16:54:31.951Z,4.46
2024-01-15T16:55:32.022Z,4.29
2024-01-15T16:56:32.089Z,3.86
2024-01-15T16:57:32.057Z,3.81
2024-01-15T16:58:32.100Z,4.01
2024-01-15T16:59:32.132Z,3.98
2024-01-15T17:00:32.132Z,4.09
2024-01-15T17:01:32.180Z,4.28
2024-01-15T17:02:32.186Z,4.23
2024-01-15T17:03:32.287Z,4.08
2024-01-15T17:04:32.292Z,4.28
2024-01-15T17:05:32.293Z,4.36
2024-01-15T17:06:32.321Z,4.38
2024-01-15T17:07:32.370Z,4.48
2024-01-15T17:08:32.537Z,4.51
2024-01-15T17:09:32.466Z,4.63
2024-01-15T17:10:32.541Z,4.73
2024-01-15T17:11:32.608Z,4.82
2024-01-15T17:12:32.618Z,4.87
2024-01-15T17:13:32.666Z,4.96
2024-01-15T17:14:32.817Z,5.02
2024-01-15T17:15:32.738Z,4.75
2024-01-15T17:16:32.734Z,4.89
2024-01-15T17:17:33.058Z,4.92
2024-01-15T17:18:32.833Z,4.92
2024-01-15T17:19:32.826Z,4.70
2024-01-15T17:20:32.955Z,4.60
2024-01-15T17:21:32.848Z,4.46
2024-01-15T17:22:32.861Z,4.62
2024-01-15T17:23:32.992Z,4.79
2024-01-15T17:24:32.959Z,4.73
2024-01-15T17:25:32.999Z,4.84
2024-01-15T17:26:33.068Z,4.89
2024-01-15T17:27:33.057Z,4.93
2024-01-15T17:28:33.118Z,4.70
2024-01-15T17:29:33.190Z,4.39
2024-01-15T17:30:33.173Z,4.22
2024-01-15T17:31:33.170Z,4.38
2024-01-15T17:32:33.445Z,4.42
2024-01-15T17:33:33.382Z,4.51
2024-01-15T17:34:33.472Z,4.52
2024-01-15T17:35:33.461Z,4.51
2024-01-15T17:36:33.424Z,4.53
2024-01-15T17:37:33.477Z,4.53
2024-01-15T17:38:33.599Z,4.52
2024-01-15T17:39:33.550Z,4.45
2024-01-15T17:40:33.606Z,4.39
2024-01-15T17:41:33.820Z,4.53
2024-01-15T17:42:33.681Z,4.49
2024-01-15T17:43:33.750Z,4.36
2024-01-15T17:44:33.821Z,4.51
2024-01-15T17:45:33.859Z,4.60
2024-01-15T17:46:34.009Z,4.57
2024-01-15T17:47:34.025Z,4.22
2024-01-15T17:48:34.083Z,4.26
2024-01-15T17:49:34.029Z,4.42
2024-01-15T17:50:34.240Z,4.36
2024-01-15T17:51:34.213Z,4.25
2024-01-15T17:52:34.150Z,4.41
2024-01-15T17:53:34.256Z,4.48
2024-01-15T17:54:37.113Z,4.11
2024-01-15T17:55:34.233Z,4.13
2024-01-15T17:56:34.272Z,4.02
2024-01-15T17:57:34.223Z,4.22
2024-01-15T17:58:34.316Z,4.33
2024-01-15T17:59:34.322Z,4.42
2024-01-15T18:00:34.237Z,4.45
2024-01-15T18:01:34.259Z,4.39
2024-01-15T18:02:34.267Z,4.41
2024-01-15T18:03:35.054Z,4.46
2024-01-15T18:04:34.230Z,4.42
2024-01-15T18:05:34.473Z,4.55
2024-01-15T18:06:34.315Z,4.65
2024-01-15T18:07:34.236Z,4.70
2024-01-15T18:08:34.414Z,4.76
2024-01-15T18:09:34.240Z,4.68
2024-01-15T18:10:34.607Z,4.51
2024-01-15T18:11:34.255Z,4.48
2024-01-15T18:12:34.279Z,4.29
2024-01-15T18:13:34.284Z,4.06
2024-01-15T18:14:34.324Z,4.16
2024-01-15T18:15:34.241Z,4.26
2024-01-15T18:16:35.108Z,4.21
2024-01-15T18:17:34.434Z,4.28
2024-01-15T18:18:34.432Z,4.35
2024-01-15T18:19:34.252Z,4.41
2024-01-15T18:20:34.358Z,4.49
2024-01-15T18:21:34.308Z,4.51
2024-01-15T18:22:34.257Z,4.53
2024-01-15T18:23:34.383Z,4.65
2024-01-15T18:24:34.304Z,4.70
2024-01-15T18:25:34.303Z,4.62
2024-01-15T18:26:34.360Z,4.75
2024-01-15T18:27:34.306Z,4.59
2024-01-15T18:28:34.389Z,4.66
2024-01-15T18:29:34.340Z,4.62
2024-01-15T18:30:34.797Z,4.68
2024-01-15T18:31:34.361Z,4.72
2024-01-15T18:32:34.325Z,4.75
2024-01-15T18:33:34.510Z,4.70
2024-01-15T18:34:34.557Z,4.65
2024-01-15T18:35:34.333Z,4.75
2024-01-15T18:36:34.282Z,4.82
2024-01-15T18:37:34.329Z,4.66
2024-01-15T18:38:34.411Z,4.65
2024-01-15T18:39:34.311Z,4.76
2024-01-15T18:40:34.346Z,4.79
2024-01-15T18:41:34.368Z,4.80
2024-01-15T18:42:34.306Z,4.75
2024-01-15T18:43:34.351Z,4.59
2024-01-15T18:44:34.399Z,4.75
2024-01-15T18:45:34.386Z,4.69
2024-01-15T18:46:34.424Z,4.62
2024-01-15T18:47:34.561Z,4.45
2024-01-15T18:48:34.631Z,4.15
2024-01-15T18:49:34.606Z,4.32
2024-01-15T18:50:34.691Z,4.19
2024-01-15T18:51:34.671Z,3.98
2024-01-15T18:52:34.724Z,3.82
2024-01-15T18:53:34.814Z,3.65
2024-01-15T18:54:34.793Z,3.95
2024-01-15T18:55:35.981Z,3.97
2024-01-15T18:56:35.006Z,3.99
2024-01-15T18:57:35.583Z,4.12
2024-01-15T18:58:34.991Z,4.21
2024-01-15T18:59:35.090Z,4.08
2024-01-15T19:00:35.108Z,4.13
2024-01-15T19:01:35.102Z,4.04
2024-01-15T19:02:35.220Z,4.06
2024-01-15T19:03:35.242Z,4.13
2024-01-15T19:04:35.277Z,4.25
2024-01-15T19:05:35.297Z,4.38
2024-01-15T19:06:35.303Z,4.41
2024-01-15T19:07:35.280Z,4.36
2024-01-15T19:08:35.449Z,4.46
2024-01-15T19:09:35.356Z,4.57
2024-01-15T19:10:35.399Z,4.48
2024-01-15T19:11:35.486Z,4.45
2024-01-15T19:12:35.503Z,4.36
2024-01-15T19:13:35.565Z,4.33
2024-01-15T19:14:35.577Z,4.29
2024-01-15T19:15:35.595Z,4.12
2024-01-15T19:16:35.642Z,4.18
2024-01-15T19:17:35.792Z,4.26
2024-01-15T19:18:35.864Z,4.16
2024-01-15T19:19:35.842Z,3.94
2024-01-15T19:20:35.830Z,4.16
2024-01-15T19:21:35.810Z,4.28
2024-01-15T19:22:35.916Z,4.26
2024-01-15T19:23:36.020Z,4.09
2024-01-15T19:24:35.877Z,4.16
2024-01-15T19:25:36.041Z,4.25
2024-01-15T19:26:35.956Z,4.38
2024-01-15T19:27:35.961Z,4.36
2024-01-15T19:28:35.962Z,4.41
2024-01-15T19:29:36.012Z,4.41
2024-01-15T19:30:36.074Z,4.46
2024-01-15T19:31:36.068Z,4.41
2024-01-15T19:32:36.124Z,4.19
2024-01-15T19:33:36.876Z,3.74
2024-01-15T19:34:36.215Z,3.98
2024-01-15T19:35:36.286Z,4.15
2024-01-15T19:36:36.265Z,4.13
2024-01-15T19:37:36.292Z,4.26
2024-01-15T19:38:36.480Z,4.05
2024-01-15T19:39:36.382Z,3.77
2024-01-15T19:40:36.371Z,3.60
2024-01-15T19:41:36.480Z,3.74
2024-01-15T19:42:36.448Z,3.97
2024-01-15T19:43:36.527Z,3.98
2024-01-15T19:44:36.628Z,4.11
2024-01-15T19:45:36.594Z,4.23
2024-01-15T19:46:36.587Z,4.05
2024-01-15T19:47:36.737Z,3.82
2024-01-15T19:48:36.704Z,3.64
2024-01-15T19:49:36.805Z,3.85
2024-01-15T19:50:36.794Z,4.06
2024-01-15T19:51:36.758Z,4.15
2024-01-15T19:52:36.796Z,4.22
2024-01-15T19:53:36.928Z,4.21
2024-01-15T19:54:36.954Z,4.33
2024-01-15T19:55:36.915Z,4.12
2024-01-15T19:56:37.200Z,3.99
2024-01-15T19:57:37.094Z,3.75
2024-01-15T19:58:37.139Z,3.64
2024-01-15T19:59:37.204Z,3.72
2024-01-15T20:00:37.201Z,3.61
2024-01-15T20:01:37.170Z,3.89
2024-01-15T20:02:37.330Z,4.05
2024-01-15T20:03:37.381Z,3.89
2024-01-15T20:04:37.345Z,3.42
2024-01-15T20:05:37.482Z,3.20
2024-01-15T20:06:37.478Z,3.06
2024-01-15T20:07:37.514Z,3.14
2024-01-15T20:08:37.566Z,2.99
2024-01-15T20:09:37.534Z,2.90
2024-01-15T20:10:37.617Z,2.87
2024-01-15T20:11:37.846Z,2.70
2024-01-15T20:12:37.651Z,2.44
2024-01-15T20:13:37.762Z,2.50
2024-01-15T20:14:37.818Z,2.64
2024-01-15T20:15:37.803Z,2.80
2024-01-15T20:16:37.883Z,2.49
2024-01-15T20:17:37.976Z,2.36
2024-01-15T20:18:38.087Z,2.30
2024-01-15T20:19:38.141Z,2.52
2024-01-15T20:20:38.127Z,2.69
2024-01-15T20:21:38.144Z,2.67
2024-01-15T20:22:38.214Z,2.86
2024-01-15T20:23:46.489Z,3.03
2024-01-15T20:24:39.249Z,3.03
2024-01-15T20:25:38.246Z,3.03
2024-01-15T20:26:38.370Z,3.11
2024-01-15T20:27:38.243Z,3.27
2024-01-15T20:28:38.395Z,3.15
2024-01-15T20:29:38.272Z,2.57
2024-01-15T20:30:38.273Z,2.64
2024-01-15T20:31:38.271Z,2.66
2024-01-15T20:32:38.760Z,2.80
2024-01-15T20:33:38.354Z,2.89
2024-01-15T20:34:38.239Z,2.94
2024-01-15T20:35:38.382Z,2.90
2024-01-15T20:36:38.408Z,3.10
2024-01-15T20:37:38.414Z,3.21
2024-01-15T20:38:38.631Z,3.38
2024-01-15T20:39:38.569Z,3.51
2024-01-15T20:40:38.661Z,3.57
2024-01-15T20:41:38.664Z,3.30
2024-01-15T20:42:38.690Z,3.24
2024-01-15T20:43:38.783Z,2.60
2024-01-15T20:44:38.846Z,2.25
2024-01-15T20:45:38.797Z,2.23
2024-01-15T20:46:38.889Z,1.82
2024-01-15T20:47:38.963Z,1.99
2024-01-15T20:48:39.002Z,2.15
2024-01-15T20:49:39.021Z,2.15
2024-01-15T20:50:39.080Z,2.12
2024-01-15T20:51:39.043Z,2.10
2024-01-15T20:52:39.107Z,2.33
2024-01-15T20:53:39.241Z,2.33
2024-01-15T20:54:40.293Z,2.47
2024-01-15T20:55:39.279Z,2.69
2024-01-15T20:56:39.385Z,2.56
2024-01-15T20:57:39.350Z,2.61
2024-01-15T20:58:39.419Z,2.63
2024-01-15T20:59:39.483Z,2.13
2024-01-15T21:00:39.498Z,2.37
2024-01-15T21:01:39.520Z,2.20
2024-01-15T21:02:39.615Z,1.98
2024-01-15T21:03:39.632Z,2.26
2024-01-15T21:04:39.641Z,2.20
2024-01-15T21:05:39.710Z,2.23
2024-01-15T21:06:39.771Z,2.29
2024-01-15T21:07:39.728Z,2.39
2024-01-15T21:08:39.822Z,2.23
2024-01-15T21:09:39.766Z,2.32
2024-01-15T21:10:39.819Z,2.32
2024-01-15T21:11:39.970Z,2.42
2024-01-15T21:12:39.963Z,2.56
2024-01-15T21:13:39.992Z,2.53
2024-01-15T21:14:40.072Z,2.33
2024-01-15T21:15:40.043Z,2.09
2024-01-15T21:16:40.059Z,2.02
2024-01-15T21:17:40.214Z,1.92
2024-01-15T21:18:40.249Z,2.18
2024-01-15T21:19:40.247Z,1.98
2024-01-15T21:20:40.360Z,2.18
2024-01-15T21:21:40.303Z,2.15
2024-01-15T21:22:40.379Z,2.26
2024-01-15T21:23:40.442Z,2.25
2024-01-15T21:24:40.412Z,2.15
2024-01-15T21:25:40.398Z,2.04
2024-01-15T21:26:40.571Z,2.05
2024-01-15T21:27:40.580Z,2.18
2024-01-15T21:28:40.576Z,2.15
2024-01-15T21:29:40.629Z,2.12
2024-01-15T21:30:40.703Z,2.06
2024-01-15T21:31:40.635Z,1.99
2024-01-15T21:32:40.769Z,2.06
2024-01-15T21:33:40.952Z,2.12
2024-01-15T21:34:40.757Z,1.89
2024-01-15T21:35:40.904Z,2.15
2024-01-15T21:36:40.868Z,2.06
2024-01-15T21:37:40.934Z,2.22
2024-01-15T21:38:41.052Z,2.33
